Arlington Heights, Massachusetts
Current Conditions -  °F | °C
As of 12:56 PM on Friday 21 Nov 2014 (Local Time) from KBED Reporting Station
Broken Clouds Broken Clouds  
Wind Chill: 24°   Ceiling: 6000
Heat Index: 34°   Visibility: 10mi
Dew Point:   Wind: 16mph
Humidity: 34%   Direction: 290°WNW
Pressure: 30.13"   Gusts: 23mph
Location:  42.42°N, 71.17°W
Report Text: KBED 211756Z 29014G20KT 10SM BKN060 01/M13 A3013 RMK AO2 PK WND 30028/1733 SLP218 T00111133 10017 21044 53010
Loading
Personal Weather Stations






























Interactive Weather Map New forecast layout! Learn more

10-Day Weather Forecast

Advertisements
Track Severe Weather on mobile